createdAt,value
2022-12-16T00:00:47.474Z,-3.50
2022-12-16T00:03:15.129Z,-3.50
2022-12-16T00:05:44.498Z,-3.50
2022-12-16T00:08:12.236Z,-3.50
2022-12-16T00:10:55.157Z,-3.50
2022-12-16T00:13:22.772Z,-3.60
2022-12-16T00:15:50.372Z,-3.50
2022-12-16T00:18:20.031Z,-3.60
2022-12-16T00:20:49.325Z,-3.50
2022-12-16T00:23:20.220Z,-3.50
2022-12-16T00:25:48.645Z,-3.50
2022-12-16T00:28:17.385Z,-3.50
2022-12-16T00:30:47.926Z,-3.50
2022-12-16T00:33:15.518Z,-3.50
2022-12-16T00:35:45.985Z,-3.50
2022-12-16T00:38:14.820Z,-3.60
2022-12-16T00:40:43.238Z,-3.60
2022-12-16T00:43:11.162Z,-3.60
2022-12-16T00:45:39.347Z,-3.60
2022-12-16T00:48:08.106Z,-3.50
2022-12-16T00:50:36.038Z,-3.60
2022-12-16T00:53:04.831Z,-3.50
2022-12-16T00:55:32.778Z,-3.50
2022-12-16T00:58:00.385Z,-3.50
2022-12-16T01:00:28.061Z,-3.50
2022-12-16T01:02:55.738Z,-3.40
2022-12-16T01:05:27.376Z,-3.40
2022-12-16T01:07:55.886Z,-3.50
2022-12-16T01:10:25.185Z,-3.40
2022-12-16T01:12:52.746Z,-3.40
2022-12-16T01:15:20.497Z,-3.50
2022-12-16T01:17:48.100Z,-3.50
2022-12-16T01:20:15.867Z,-3.50
2022-12-16T01:22:43.414Z,-3.50
2022-12-16T01:25:12.919Z,-3.50
2022-12-16T01:27:40.565Z,-3.50
2022-12-16T01:30:09.580Z,-3.50
2022-12-16T01:32:37.248Z,-3.50
2022-12-16T01:35:14.037Z,-3.50
2022-12-16T01:37:51.114Z,-3.50
2022-12-16T01:40:22.407Z,-3.50
2022-12-16T01:42:50.293Z,-3.50
2022-12-16T01:45:33.304Z,-3.50
2022-12-16T01:48:18.384Z,-3.60
2022-12-16T01:50:46.821Z,-3.60
2022-12-16T01:53:14.637Z,-3.60
2022-12-16T01:55:47.782Z,-3.60
2022-12-16T01:58:24.718Z,-3.60
2022-12-16T02:00:52.639Z,-3.60
2022-12-16T02:03:22.893Z,-3.70
2022-12-16T02:05:51.863Z,-3.70
2022-12-16T02:08:20.443Z,-3.70
2022-12-16T02:11:06.284Z,-3.70
2022-12-16T02:14:17.528Z,-3.70
2022-12-16T02:17:22.327Z,-3.70
2022-12-16T02:20:29.036Z,-3.70
2022-12-16T02:23:26.281Z,-3.70
2022-12-16T02:25:53.841Z,-3.70
2022-12-16T02:28:53.500Z,-3.70
2022-12-16T02:31:39.651Z,-3.70
2022-12-16T02:34:15.858Z,-3.70
2022-12-16T02:36:57.890Z,-3.70
2022-12-16T02:39:33.059Z,-3.70
2022-12-16T02:42:13.687Z,-3.70
2022-12-16T02:45:04.579Z,-3.60
2022-12-16T02:47:32.981Z,-3.60
2022-12-16T02:50:00.771Z,-3.70
2022-12-16T02:52:33.863Z,-3.70
2022-12-16T02:55:09.048Z,-3.70
2022-12-16T02:57:50.164Z,-3.70
2022-12-16T03:00:21.524Z,-3.70
2022-12-16T03:03:13.465Z,-3.70
2022-12-16T03:05:48.126Z,-3.70
2022-12-16T03:08:34.065Z,-3.70
2022-12-16T03:11:05.314Z,-3.70
2022-12-16T03:13:38.909Z,-3.80
2022-12-16T03:16:09.288Z,-3.80
2022-12-16T03:18:42.202Z,-3.80
2022-12-16T03:21:11.027Z,-3.80
2022-12-16T03:24:00.676Z,-3.80
2022-12-16T03:26:35.957Z,-3.80
2022-12-16T03:29:25.311Z,-3.80
2022-12-16T03:31:56.530Z,-3.80
2022-12-16T03:34:35.732Z,-3.80
2022-12-16T03:37:07.343Z,-3.90
2022-12-16T03:39:44.159Z,-3.90
2022-12-16T03:42:14.469Z,-3.90
2022-12-16T03:44:44.862Z,-3.90
2022-12-16T03:47:14.969Z,-3.90
2022-12-16T03:49:49.043Z,-3.90
2022-12-16T03:52:16.566Z,-3.90
2022-12-16T03:54:44.108Z,-3.90
2022-12-16T03:57:15.400Z,-3.90
2022-12-16T03:59:43.449Z,-3.90
2022-12-16T04:02:11.281Z,-4.00
2022-12-16T04:04:39.023Z,-4.00
2022-12-16T04:07:22.029Z,-4.00
2022-12-16T04:09:50.862Z,-4.00
2022-12-16T04:12:38.022Z,-4.00
2022-12-16T04:15:25.665Z,-4.00
2022-12-16T04:18:11.853Z,-4.00
2022-12-16T04:21:06.287Z,-4.00
2022-12-16T04:23:53.598Z,-4.00
2022-12-16T04:26:22.721Z,-4.00
2022-12-16T04:28:50.289Z,-4.10
2022-12-16T04:31:17.969Z,-4.10
2022-12-16T04:34:04.370Z,-4.10
2022-12-16T04:36:50.797Z,-4.10
2022-12-16T04:39:37.053Z,-4.10
2022-12-16T04:42:23.400Z,-4.20
2022-12-16T04:45:09.761Z,-4.20
2022-12-16T04:47:57.699Z,-4.20
2022-12-16T04:50:44.302Z,-4.20
2022-12-16T04:53:30.857Z,-4.20
2022-12-16T04:56:17.483Z,-4.20
2022-12-16T04:59:03.831Z,-4.20
2022-12-16T05:01:50.327Z,-4.20
2022-12-16T05:04:36.614Z,-4.20
2022-12-16T05:07:23.131Z,-4.20
2022-12-16T05:10:09.410Z,-4.30
2022-12-16T05:12:55.634Z,-4.30
2022-12-16T05:15:42.088Z,-4.30
2022-12-16T05:18:33.150Z,-4.30
2022-12-16T05:21:21.020Z,-4.30
2022-12-16T05:24:07.357Z,-4.30
2022-12-16T05:26:53.726Z,-4.30
2022-12-16T05:29:39.681Z,-4.30
2022-12-16T05:32:26.093Z,-4.30
2022-12-16T05:35:12.469Z,-4.30
2022-12-16T05:37:58.499Z,-4.30
2022-12-16T05:40:44.863Z,-4.30
2022-12-16T05:43:31.511Z,-4.30
2022-12-16T05:46:17.934Z,-4.30
2022-12-16T05:49:04.444Z,-4.30
2022-12-16T05:51:50.640Z,-4.30
2022-12-16T05:54:36.913Z,-4.30
2022-12-16T05:57:23.066Z,-4.30
2022-12-16T06:00:09.412Z,-4.30
2022-12-16T06:02:55.879Z,-4.30
2022-12-16T06:05:42.315Z,-4.40
2022-12-16T06:08:28.528Z,-4.40
2022-12-16T06:11:14.936Z,-4.40
2022-12-16T06:14:01.337Z,-4.50
2022-12-16T06:16:47.666Z,-4.40
2022-12-16T06:19:34.118Z,-4.50
2022-12-16T06:22:20.414Z,-4.50
2022-12-16T06:25:06.785Z,-4.50
2022-12-16T06:27:53.152Z,-4.50
2022-12-16T06:30:39.520Z,-4.50
2022-12-16T06:33:25.971Z,-4.50
2022-12-16T06:36:12.370Z,-4.60
2022-12-16T06:38:58.691Z,-4.50
2022-12-16T06:41:58.723Z,-4.50
2022-12-16T06:44:45.190Z,-4.50
2022-12-16T06:47:31.489Z,-4.50
2022-12-16T06:50:17.810Z,-4.50
2022-12-16T06:53:04.540Z,-4.60
2022-12-16T06:55:50.989Z,-4.60
2022-12-16T06:58:37.077Z,-4.60
2022-12-16T07:01:23.691Z,-4.60
2022-12-16T07:04:10.099Z,-4.70
2022-12-16T07:06:56.364Z,-4.70
2022-12-16T07:09:42.751Z,-4.70
2022-12-16T07:12:29.179Z,-4.70
2022-12-16T07:15:15.682Z,-4.70
2022-12-16T07:18:04.184Z,-4.80
2022-12-16T07:20:50.610Z,-4.80
2022-12-16T07:23:37.201Z,-4.80
2022-12-16T07:26:24.748Z,-4.80
2022-12-16T07:29:10.986Z,-4.80
2022-12-16T07:31:57.499Z,-4.80
2022-12-16T07:34:49.858Z,-4.80
2022-12-16T07:37:36.613Z,-4.80
2022-12-16T07:40:23.548Z,-4.80
2022-12-16T07:43:09.853Z,-4.80
2022-12-16T07:45:56.213Z,-4.70
2022-12-16T07:48:42.296Z,-4.70
2022-12-16T07:51:28.842Z,-4.70
2022-12-16T07:54:15.133Z,-4.70
2022-12-16T07:57:01.222Z,-4.70
2022-12-16T07:59:47.555Z,-4.70
2022-12-16T08:02:33.866Z,-4.70
2022-12-16T08:05:20.139Z,-4.70
2022-12-16T08:08:06.377Z,-4.70
2022-12-16T08:10:52.851Z,-4.70
2022-12-16T08:13:41.440Z,-4.60
2022-12-16T08:16:27.749Z,-4.60
2022-12-16T08:19:14.110Z,-4.50
2022-12-16T08:22:00.331Z,-4.50
2022-12-16T08:24:55.955Z,-4.50
2022-12-16T08:27:42.579Z,-4.50
2022-12-16T08:30:29.370Z,-4.50
2022-12-16T08:33:19.625Z,-4.50
2022-12-16T08:36:06.377Z,-4.50
2022-12-16T08:38:53.964Z,-4.40
2022-12-16T08:41:42.083Z,-4.40
2022-12-16T08:44:28.258Z,-4.40
2022-12-16T08:47:14.273Z,-4.40
2022-12-16T08:50:02.234Z,-4.40
2022-12-16T08:52:49.609Z,-4.40
2022-12-16T08:55:40.306Z,-4.30
2022-12-16T08:58:26.776Z,-4.30
2022-12-16T09:01:13.073Z,-4.40
2022-12-16T09:03:59.438Z,-4.30
2022-12-16T09:06:45.921Z,-4.30
2022-12-16T09:09:32.448Z,-4.30
2022-12-16T09:12:18.814Z,-4.30
2022-12-16T09:15:05.202Z,-4.30
2022-12-16T09:17:51.549Z,-4.20
2022-12-16T09:20:38.983Z,-4.20
2022-12-16T09:23:25.365Z,-4.20
2022-12-16T09:26:11.993Z,-4.20
2022-12-16T09:28:58.307Z,-4.20
2022-12-16T09:31:44.494Z,-4.20
2022-12-16T09:34:31.005Z,-4.10
2022-12-16T09:37:17.143Z,-4.10
2022-12-16T09:40:03.527Z,-4.00
2022-12-16T09:43:15.916Z,-4.00
2022-12-16T09:46:53.958Z,-4.00
2022-12-16T09:50:03.197Z,-4.00
2022-12-16T09:52:54.407Z,-3.90
2022-12-16T09:55:48.318Z,-3.90
2022-12-16T09:58:36.650Z,-3.70
2022-12-16T10:01:23.216Z,-3.70
2022-12-16T10:04:09.856Z,-3.70
2022-12-16T10:07:05.973Z,-3.60
2022-12-16T10:10:01.572Z,-3.60
2022-12-16T10:13:05.748Z,-3.60
2022-12-16T10:16:03.862Z,-3.50
2022-12-16T10:19:08.209Z,-3.50
2022-12-16T10:22:27.832Z,-3.40
2022-12-16T10:25:27.310Z,-3.30
2022-12-16T10:28:23.368Z,-3.20
2022-12-16T10:31:10.808Z,-2.70
2022-12-16T10:33:57.100Z,-1.80
2022-12-16T10:36:44.084Z,-0.40
2022-12-16T10:39:52.876Z,-0.20
2022-12-16T10:42:52.012Z,-0.30
2022-12-16T10:45:46.631Z,0.40
2022-12-16T10:48:36.035Z,0.70
2022-12-16T10:51:33.915Z,1.40
2022-12-16T10:54:53.028Z,2.80
2022-12-16T10:57:47.370Z,2.40
2022-12-16T11:00:36.530Z,2.30
2022-12-16T11:03:43.641Z,2.30
2022-12-16T11:06:35.497Z,2.80
2022-12-16T11:09:39.661Z,3.00
2022-12-16T11:12:45.974Z,3.30
2022-12-16T11:15:43.195Z,3.50
2022-12-16T11:18:39.845Z,4.30
2022-12-16T11:21:35.085Z,3.80
2022-12-16T11:24:35.404Z,4.10
2022-12-16T11:27:39.679Z,3.60
2022-12-16T11:30:30.787Z,3.40
2022-12-16T11:33:19.188Z,3.60
2022-12-16T11:36:11.174Z,2.90
2022-12-16T11:39:05.871Z,3.30
2022-12-16T11:41:57.884Z,3.00
2022-12-16T11:44:52.183Z,3.10
2022-12-16T11:47:49.738Z,2.80
2022-12-16T11:50:41.369Z,3.40
2022-12-16T11:53:43.238Z,2.90
2022-12-16T11:56:36.238Z,2.50
2022-12-16T11:59:30.819Z,2.80
2022-12-16T12:02:19.792Z,3.50
2022-12-16T12:05:08.954Z,4.00
2022-12-16T12:08:20.384Z,3.20
2022-12-16T12:11:24.298Z,1.50
2022-12-16T12:14:16.630Z,1.90
2022-12-16T12:17:31.666Z,2.80
2022-12-16T12:20:43.943Z,4.20
2022-12-16T12:23:33.728Z,5.60
2022-12-16T12:26:38.531Z,6.80
2022-12-16T12:29:52.274Z,6.80
2022-12-16T12:32:56.452Z,7.90
2022-12-16T12:36:11.922Z,7.20
2022-12-16T12:39:30.751Z,9.50
2022-12-16T12:42:40.369Z,8.30
2022-12-16T12:45:59.498Z,8.60
2022-12-16T12:48:57.590Z,8.90
2022-12-16T12:52:16.016Z,9.10
2022-12-16T12:55:28.150Z,8.20
2022-12-16T12:58:16.410Z,7.00
2022-12-16T13:01:07.158Z,7.60
2022-12-16T13:04:12.266Z,8.00
2022-12-16T13:06:59.166Z,8.50
2022-12-16T13:09:50.120Z,9.00
2022-12-16T13:12:42.204Z,10.00
2022-12-16T13:15:51.522Z,9.60
2022-12-16T13:18:43.731Z,11.20
2022-12-16T13:21:54.810Z,10.90
2022-12-16T13:24:45.823Z,10.40
2022-12-16T13:27:38.329Z,8.90
2022-12-16T13:30:32.324Z,8.50
2022-12-16T13:33:51.175Z,8.70
2022-12-16T13:36:38.297Z,9.50
2022-12-16T13:39:41.318Z,10.40
2022-12-16T13:42:50.065Z,10.70
2022-12-16T13:45:50.573Z,10.30
2022-12-16T13:48:48.480Z,11.40
2022-12-16T13:51:56.467Z,10.60
2022-12-16T13:54:59.225Z,9.70
2022-12-16T13:57:48.915Z,7.50
2022-12-16T14:00:41.497Z,5.70
2022-12-16T14:03:43.766Z,4.10
2022-12-16T14:06:37.557Z,2.30
2022-12-16T14:09:23.897Z,1.40
2022-12-16T14:12:42.560Z,1.00
2022-12-16T14:15:47.079Z,0.70
2022-12-16T14:18:49.775Z,0.40
2022-12-16T14:21:42.820Z,0.30
2022-12-16T14:24:46.729Z,0.30
2022-12-16T14:27:40.590Z,0.20
2022-12-16T14:30:39.381Z,0.20
2022-12-16T14:33:36.053Z,0.20
2022-12-16T14:36:22.890Z,0.10
2022-12-16T14:39:09.835Z,0.10
2022-12-16T14:41:56.108Z,0.00
2022-12-16T14:44:43.791Z,0.00
2022-12-16T14:47:40.467Z,-0.10
2022-12-16T14:50:48.512Z,-0.20
2022-12-16T14:53:40.470Z,-0.20
2022-12-16T14:56:35.532Z,-0.30
2022-12-16T14:59:36.266Z,-0.40
2022-12-16T15:02:45.528Z,-0.50
2022-12-16T15:05:35.674Z,-0.50
2022-12-16T15:08:21.962Z,-0.60
2022-12-16T15:11:08.052Z,-0.60
2022-12-16T15:13:58.983Z,-0.70
2022-12-16T15:16:55.312Z,-0.80
2022-12-16T15:19:45.390Z,-0.90
2022-12-16T15:22:44.971Z,-0.90
2022-12-16T15:25:38.551Z,-1.00
2022-12-16T15:28:44.036Z,-1.00
2022-12-16T15:31:42.585Z,-1.10
2022-12-16T15:34:45.820Z,-1.20
2022-12-16T15:38:03.584Z,-1.20
2022-12-16T15:40:53.020Z,-1.30
2022-12-16T15:43:46.438Z,-1.30
2022-12-16T15:46:47.149Z,-1.40
2022-12-16T15:49:51.616Z,-1.40
2022-12-16T15:53:01.950Z,-1.50
2022-12-16T15:56:04.181Z,-1.50
2022-12-16T15:58:55.091Z,-1.60
2022-12-16T16:01:44.283Z,-1.70
2022-12-16T16:04:48.788Z,-1.70
2022-12-16T16:07:41.381Z,-1.70
2022-12-16T16:10:38.877Z,-1.80
2022-12-16T16:13:25.906Z,-1.80
2022-12-16T16:16:14.812Z,-1.80
2022-12-16T16:19:01.754Z,-1.80
2022-12-16T16:21:48.842Z,-1.80
2022-12-16T16:24:35.214Z,-1.80
2022-12-16T16:27:22.607Z,-1.80
2022-12-16T16:30:08.918Z,-1.90
2022-12-16T16:32:55.220Z,-1.90
2022-12-16T16:35:41.590Z,-1.90
2022-12-16T16:38:30.017Z,-2.00
2022-12-16T16:41:16.917Z,-1.90
2022-12-16T16:44:03.147Z,-2.00
2022-12-16T16:46:55.655Z,-2.00
2022-12-16T16:49:42.908Z,-2.10
2022-12-16T16:52:34.894Z,-2.10
2022-12-16T16:55:21.356Z,-2.10
2022-12-16T16:58:07.283Z,-2.20
2022-12-16T17:00:53.747Z,-2.20
2022-12-16T17:03:41.336Z,-2.20
2022-12-16T17:06:28.015Z,-2.20
2022-12-16T17:09:14.415Z,-2.30
2022-12-16T17:12:00.971Z,-2.30
2022-12-16T17:14:47.191Z,-2.30
2022-12-16T17:17:33.515Z,-2.40
2022-12-16T17:20:19.906Z,-2.40
2022-12-16T17:23:06.226Z,-2.50
2022-12-16T17:25:52.630Z,-2.50
2022-12-16T17:28:39.231Z,-2.60
2022-12-16T17:31:26.827Z,-2.60
2022-12-16T17:34:13.316Z,-2.60
2022-12-16T17:36:59.757Z,-2.60
2022-12-16T17:39:45.972Z,-2.70
2022-12-16T17:42:32.468Z,-2.70
2022-12-16T17:45:19.408Z,-2.70
2022-12-16T17:48:05.564Z,-2.80
2022-12-16T17:50:51.692Z,-2.80
2022-12-16T17:53:37.922Z,-2.80
2022-12-16T17:56:24.213Z,-2.90
2022-12-16T17:59:11.338Z,-2.90
2022-12-16T18:01:57.837Z,-2.90
2022-12-16T18:04:43.934Z,-2.90
2022-12-16T18:07:30.049Z,-2.90
2022-12-16T18:10:16.241Z,-3.00
2022-12-16T18:13:02.624Z,-3.00
2022-12-16T18:15:50.496Z,-3.00
2022-12-16T18:18:39.335Z,-3.00
2022-12-16T18:21:30.955Z,-3.10
2022-12-16T18:24:17.301Z,-3.10
2022-12-16T18:27:03.629Z,-3.10
2022-12-16T18:33:14.496Z,-3.20
2022-12-16T18:36:00.619Z,-3.20
2022-12-16T18:38:47.092Z,-3.30
2022-12-16T18:41:36.290Z,-3.30
2022-12-16T18:44:25.108Z,-3.30
2022-12-16T18:47:11.513Z,-3.30
2022-12-16T18:49:57.790Z,-3.30
2022-12-16T18:52:44.072Z,-3.40
2022-12-16T18:55:30.516Z,-3.50
2022-12-16T18:58:42.697Z,-3.50
2022-12-16T19:01:25.872Z,-3.50
2022-12-16T19:04:13.494Z,-3.50
2022-12-16T19:07:00.338Z,-3.50
2022-12-16T19:09:55.665Z,-3.50
2022-12-16T19:13:00.042Z,-3.50
2022-12-16T19:15:46.385Z,-3.60
2022-12-16T19:19:01.490Z,-3.60
2022-12-16T19:21:51.974Z,-3.60
2022-12-16T19:24:42.850Z,-3.60
2022-12-16T19:27:29.234Z,-3.70
2022-12-16T19:30:15.598Z,-3.70
2022-12-16T19:33:01.794Z,-3.70
2022-12-16T19:35:49.487Z,-3.80
2022-12-16T19:38:35.568Z,-3.80
2022-12-16T19:41:21.660Z,-3.90
2022-12-16T19:44:07.824Z,-3.90
2022-12-16T19:46:56.325Z,-3.90
2022-12-16T19:49:44.611Z,-3.90
2022-12-16T19:52:31.315Z,-4.00
2022-12-16T19:55:17.985Z,-4.00
2022-12-16T19:58:04.162Z,-4.00
2022-12-16T20:00:50.482Z,-4.00
2022-12-16T20:03:38.066Z,-4.00
2022-12-16T20:06:27.974Z,-4.00
2022-12-16T20:09:15.387Z,-4.00
2022-12-16T20:12:01.576Z,-4.00
2022-12-16T20:14:48.083Z,-4.00
2022-12-16T20:17:34.242Z,-3.90
2022-12-16T20:20:20.638Z,-3.90
2022-12-16T20:23:06.904Z,-3.80
2022-12-16T20:25:56.369Z,-3.80
2022-12-16T20:28:43.044Z,-3.80
2022-12-16T20:31:29.197Z,-3.80
2022-12-16T20:34:15.955Z,-3.80
2022-12-16T20:37:02.250Z,-3.80
2022-12-16T20:39:56.416Z,-3.90
2022-12-16T20:42:44.648Z,-3.90
2022-12-16T20:45:32.519Z,-4.00
2022-12-16T20:48:18.829Z,-3.90
2022-12-16T20:54:25.232Z,-4.00
2022-12-16T20:57:12.840Z,-4.00
2022-12-16T20:59:59.435Z,-4.00
2022-12-16T21:02:46.012Z,-4.10
2022-12-16T21:05:32.492Z,-4.10
2022-12-16T21:08:18.865Z,-4.10
2022-12-16T21:11:05.186Z,-4.20
2022-12-16T21:13:51.497Z,-4.20
2022-12-16T21:16:38.301Z,-4.20
2022-12-16T21:19:29.401Z,-4.30
2022-12-16T21:22:19.378Z,-4.30
2022-12-16T21:25:05.709Z,-4.30
2022-12-16T21:27:51.777Z,-4.20
2022-12-16T21:30:38.831Z,-4.20
2022-12-16T21:33:25.079Z,-4.20
2022-12-16T21:36:12.396Z,-4.20
2022-12-16T21:38:58.842Z,-4.20
2022-12-16T21:41:45.269Z,-4.20
2022-12-16T21:44:31.589Z,-4.30
2022-12-16T21:47:18.154Z,-4.30
2022-12-16T21:50:04.524Z,-4.30
2022-12-16T21:52:50.645Z,-4.30
2022-12-16T21:55:38.229Z,-4.30
2022-12-16T21:58:29.768Z,-4.30
2022-12-16T22:01:17.274Z,-4.30
2022-12-16T22:04:03.408Z,-4.30
2022-12-16T22:06:50.319Z,-4.40
2022-12-16T22:09:36.696Z,-4.40
2022-12-16T22:12:23.199Z,-4.40
2022-12-16T22:15:09.440Z,-4.40
2022-12-16T22:17:58.600Z,-4.40
2022-12-16T22:21:01.968Z,-4.40
2022-12-16T22:23:48.524Z,-4.40
2022-12-16T22:26:35.082Z,-4.50
2022-12-16T22:29:21.425Z,-4.50
2022-12-16T22:32:07.839Z,-4.50
2022-12-16T22:34:54.092Z,-4.50
2022-12-16T22:36:21.548Z,-4.00
2022-12-16T22:37:41.938Z,-4.50
2022-12-16T22:40:28.893Z,-4.50
2022-12-16T22:43:15.441Z,-4.50
2022-12-16T22:46:01.840Z,-4.50
2022-12-16T22:48:48.347Z,-4.50
2022-12-16T22:51:35.436Z,-4.50
2022-12-16T22:54:21.587Z,-4.50
2022-12-16T22:57:07.987Z,-4.50
2022-12-16T22:59:54.309Z,-4.50
2022-12-16T23:02:42.811Z,-4.50
2022-12-16T23:05:29.151Z,-4.50
2022-12-16T23:08:15.570Z,-4.50
2022-12-16T23:11:01.831Z,-4.50
2022-12-16T23:13:48.265Z,-4.50
2022-12-16T23:16:37.339Z,-4.50
2022-12-16T23:19:23.597Z,-4.60
2022-12-16T23:22:10.026Z,-4.60
2022-12-16T23:24:56.161Z,-4.60
2022-12-16T23:27:43.274Z,-4.60
2022-12-16T23:30:29.790Z,-4.60
2022-12-16T23:33:19.774Z,-4.60
2022-12-16T23:36:06.619Z,-4.60
2022-12-16T23:38:53.313Z,-4.60
2022-12-16T23:41:39.902Z,-4.60
2022-12-16T23:44:26.247Z,-4.60
2022-12-16T23:47:12.477Z,-4.60
2022-12-16T23:49:58.849Z,-4.60
2022-12-16T23:52:45.248Z,-4.60
2022-12-16T23:55:31.584Z,-4.60
2022-12-16T23:58:19.966Z,-4.70
